Huvudsida
METAR-TAF:

METAR-TAF

Flygplatser :

Abadan International Airport

Abadan, Iran

latitud: 30-22N, longitud: 048-15E, höjd: 3 m

Aktuellt väderrapport

Denna rapport gjordes för 1 timme och 9 minuter sedan, klockan 03:00 UTC
Vind 8 kt från väst
Temperatur 10°C
Fuktighet 66%
Tryck 1015 hPa
Sikt 10 km eller mer
Inga moln under 1 500 m eller inga cumulonimbus

METAR: OIAA 200300Z 26008KT CAVOK 10/04 Q1015

Tid: 07:39 (04:09 UTC)

Väderprognos

Denna rapport gjordes för 5 timmar och 9 minuter sedan, klockan 23:00 UTC
Prognos gäller från 20 kl. 00 UTC till 21 kl. 06 UTC
Vind 8 kt från väst
Sikt: 5000 m
Temporärt
från 20 kl. 01 UTC till 20 kl. 06 UTC
Sikt: 3000 m
fuktdis
Blir
från 20 kl. 07 UTC till 20 kl. 09 UTC
Sikt: 7000 m

TAF: OIAA 192300Z 2000/2106 26008KT 5000 BR/HZ NSC TEMPO 2001/2006 3000 BR BECMG 2007/2009 7000

Aktuella väderrapporter och prognoser från 4000 flygplatser (METAR- och TAF-rapporter).

De tillgängliga stationerna syns som gula och röda prickar på kartan.

För musen över prickarna för att se namnen på stationerna.

Klicka sedan för att få väderrapporter och prognoser.

För att ändra kartan: Klicka på de gröna knapparna med ett svart kors på för att zooma in; den gröna knappen med ett streck på för att zooma ut; eller på de gröna pilarna för angränsande kartor.


METAR-TAF: